Time;durP1;ratioP1;P1;durP2;ratioP2;P2;SDS_P1;SDS_P2;PMS_P1;PMS_P2;Temp;Humidity;BMP_temperature;BMP_pressure;BME280_temperature;BME280_humidity;BME280_pressure;Samples;Min_cycle;Max_cycle;Signal;HPM_P1;HPM_P2
2023/08/25 00:00:27;;;;;;;6.82;3.92;;;;;;;-145.87;100.00;54973.53;2066596;28;20057;-61
2023/08/25 00:01:28;;;;;;;9.30;4.15;;;;;;;-145.87;100.00;54973.53;2066490;28;20058;-60
2023/08/25 00:02:29;;;;;;;7.30;3.38;;;;;;;-145.87;100.00;54973.53;2066418;28;20054;-61
2023/08/25 00:03:31;;;;;;;7.65;4.00;;;;;;;-145.87;100.00;54973.53;2057550;28;20434;-58
2023/08/25 00:04:32;;;;;;;7.30;3.58;;;;;;;-145.87;100.00;54973.53;2057717;28;20066;-58
2023/08/25 00:05:37;;;;;;;8.63;3.83;;;;;;;-145.87;100.00;54973.53;2066458;28;20065;-58
2023/08/25 00:06:38;;;;;;;10.63;4.18;;;;;;;-145.87;100.00;54973.53;2065719;28;20050;-59
2023/08/25 00:07:39;;;;;;;7.28;4.15;;;;;;;-145.87;100.00;54973.53;2066496;28;20054;-59
2023/08/25 00:08:40;;;;;;;9.43;3.88;;;;;;;-145.87;100.00;54973.53;2066398;28;20054;-60
2023/08/25 00:09:43;;;;;;;6.05;3.35;;;;;;;-145.87;100.00;54973.53;2065654;28;20553;-60
2023/08/25 00:10:44;;;;;;;6.25;3.38;;;;;;;-145.87;100.00;54973.53;2065764;28;20050;-60
2023/08/25 00:11:46;;;;;;;6.40;3.17;;;;;;;-145.87;100.00;54973.53;2066269;28;20049;-60
2023/08/25 00:12:47;;;;;;;6.50;3.13;;;;;;;-145.87;100.00;54973.53;2066021;28;20069;-60
2023/08/25 00:13:48;;;;;;;9.20;3.30;;;;;;;-145.87;100.00;54973.53;2065644;28;20058;-60
2023/08/25 00:14:49;;;;;;;5.70;2.65;;;;;;;-145.87;100.00;54973.53;2066366;28;20537;-59
2023/08/25 00:15:50;;;;;;;6.82;3.30;;;;;;;-145.87;100.00;54973.53;2065823;28;20058;-60
2023/08/25 00:16:55;;;;;;;5.63;3.05;;;;;;;-145.87;100.00;54973.53;2066060;28;20065;-60
2023/08/25 00:17:57;;;;;;;8.73;3.30;;;;;;;-145.87;100.00;54973.53;2065072;28;20058;-60
2023/08/25 00:18:58;;;;;;;7.60;3.13;;;;;;;-145.87;100.00;54973.53;2057460;28;20054;-59
2023/08/25 00:20:00;;;;;;;8.15;2.90;;;;;;;-145.87;100.00;54973.53;2057927;28;20064;-59
2023/08/25 00:21:01;;;;;;;5.50;2.70;;;;;;;-145.87;100.00;54973.53;2065438;28;20050;-60
2023/08/25 00:22:02;;;;;;;6.78;2.80;;;;;;;-145.87;100.00;54973.53;2065722;28;20085;-59
2023/08/25 00:23:03;;;;;;;5.60;2.85;;;;;;;-145.87;100.00;54973.53;2065886;28;20407;-58
2023/08/25 00:24:05;;;;;;;6.13;2.60;;;;;;;-145.87;100.00;54973.53;2066537;28;20050;-59
2023/08/25 00:25:06;;;;;;;5.20;2.88;;;;;;;-145.87;100.00;54973.53;2066563;28;20065;-59
2023/08/25 00:26:08;;;;;;;4.72;2.58;;;;;;;-145.87;100.00;54973.53;2066141;28;20410;-60
2023/08/25 00:27:09;;;;;;;7.63;2.85;;;;;;;-145.87;100.00;54973.53;2065526;28;20057;-60
2023/08/25 00:28:11;;;;;;;4.85;2.83;;;;;;;-145.87;100.00;54973.53;2057266;28;20402;-60
2023/08/25 00:29:12;;;;;;;6.32;2.72;;;;;;;-145.87;100.00;54973.53;2057319;28;20522;-59
2023/08/25 00:30:13;;;;;;;8.15;2.78;;;;;;;-145.87;100.00;54973.53;2066263;28;20054;-59
2023/08/25 00:31:14;;;;;;;6.60;3.33;;;;;;;-145.87;100.00;54973.53;2057008;28;20047;-60
2023/08/25 00:32:16;;;;;;;4.97;2.30;;;;;;;-145.87;100.00;54973.53;2057723;28;20506;-60
2023/08/25 00:33:17;;;;;;;6.05;2.60;;;;;;;-145.87;100.00;54973.53;2057673;28;20054;-60
2023/08/25 00:34:18;;;;;;;7.97;3.25;;;;;;;-145.87;100.00;54973.53;2057209;28;20054;-60
2023/08/25 00:35:19;;;;;;;5.72;2.65;;;;;;;-145.87;100.00;54973.53;2066130;28;20414;-59
2023/08/25 00:36:20;;;;;;;5.72;2.92;;;;;;;-145.87;100.00;54973.53;2066073;28;20065;-60
2023/08/25 00:37:21;;;;;;;7.05;3.00;;;;;;;-145.87;100.00;54973.53;2065883;28;20061;-59
2023/08/25 00:38:28;;;;;;;7.32;3.25;;;;;;;-145.87;100.00;54973.53;2066047;28;20054;-60
2023/08/25 00:39:29;;;;;;;5.50;2.50;;;;;;;-145.87;100.00;54973.53;2066110;28;20042;-60
2023/08/25 00:40:36;;;;;;;6.90;2.63;;;;;;;-145.87;100.00;54973.53;2066093;28;20414;-60
2023/08/25 00:41:38;;;;;;;4.55;2.70;;;;;;;-145.87;100.00;54973.53;2065489;28;20061;-59
2023/08/25 00:42:39;;;;;;;4.03;2.55;;;;;;;-145.87;100.00;54973.53;2065701;28;20054;-59
2023/08/25 00:43:40;;;;;;;4.05;2.15;;;;;;;-145.87;100.00;54973.53;2066070;28;20403;-59
2023/08/25 00:44:41;;;;;;;4.22;2.38;;;;;;;-145.87;100.00;54973.53;2066158;28;20073;-60
2023/08/25 00:45:42;;;;;;;6.15;2.55;;;;;;;-145.87;100.00;54973.53;2057541;28;20559;-60
2023/08/25 00:46:43;;;;;;;4.63;2.22;;;;;;;-145.87;100.00;54973.53;2057414;28;20110;-59
2023/08/25 00:47:45;;;;;;;5.25;2.25;;;;;;;-145.87;100.00;54973.53;2057428;28;20055;-59
2023/08/25 00:48:46;;;;;;;4.05;2.55;;;;;;;-145.87;100.00;54973.53;2057392;28;20050;-59
2023/08/25 00:49:47;;;;;;;7.32;2.40;;;;;;;-145.87;100.00;54973.53;2041454;29;20424;-59
2023/08/25 00:50:48;;;;;;;4.95;2.00;;;;;;;-145.87;100.00;54973.53;2049617;29;20051;-59
2023/08/25 00:51:50;;;;;;;5.68;2.15;;;;;;;-145.87;100.00;54973.53;2057045;28;20065;-59
2023/08/25 00:52:51;;;;;;;7.88;2.70;;;;;;;-145.87;100.00;54973.53;2057347;28;20050;-59
2023/08/25 00:53:52;;;;;;;4.80;2.00;;;;;;;-145.87;100.00;54973.53;2057332;28;20379;-58
2023/08/25 00:54:54;;;;;;;6.13;2.50;;;;;;;-145.87;100.00;54973.53;2065339;28;20057;-59
2023/08/25 00:55:55;;;;;;;5.72;2.67;;;;;;;-145.87;100.00;54973.53;2056781;28;20058;-59
2023/08/25 00:56:56;;;;;;;5.50;2.67;;;;;;;-145.87;100.00;54973.53;2041729;29;20056;-59
2023/08/25 00:57:58;;;;;;;8.63;2.47;;;;;;;-145.87;100.00;54973.53;2049330;28;20067;-58
2023/08/25 00:58:59;;;;;;;7.18;2.60;;;;;;;-145.87;100.00;54973.53;2041483;29;20051;-58
2023/08/25 01:00:02;;;;;;;7.43;3.05;;;;;;;-145.87;100.00;54973.53;2041927;28;20047;-58
2023/08/25 01:01:04;;;;;;;6.15;2.85;;;;;;;-145.87;100.00;54973.53;2049315;28;20055;-56
2023/08/25 01:02:06;;;;;;;6.35;2.72;;;;;;;-145.87;100.00;54973.53;2041781;29;20051;-57
2023/08/25 01:03:07;;;;;;;5.68;2.17;;;;;;;-145.87;100.00;54973.53;2049131;28;20043;-57
2023/08/25 01:04:09;;;;;;;5.65;2.60;;;;;;;-145.87;100.00;54973.53;2057490;28;20053;-57
2023/08/25 01:05:10;;;;;;;5.68;2.58;;;;;;;-145.87;100.00;54973.53;2065586;28;20058;-57
2023/08/25 01:06:12;;;;;;;6.30;3.22;;;;;;;-145.87;100.00;54973.53;2065781;28;20050;-57
2023/08/25 01:07:13;;;;;;;8.85;2.90;;;;;;;-145.87;100.00;54973.53;2057091;28;20106;-56
2023/08/25 01:08:15;;;;;;;6.30;2.53;;;;;;;-145.87;100.00;54973.53;2049145;29;20055;-56
2023/08/25 01:09:18;;;;;;;6.88;2.47;;;;;;;-145.87;100.00;54973.53;2057489;28;20059;-56
2023/08/25 01:10:19;;;;;;;6.13;2.90;;;;;;;-145.87;100.00;54973.53;2064972;28;20050;-55
2023/08/25 01:11:38;;;;;;;7.28;2.53;;;;;;;-145.87;100.00;54973.53;2064798;28;20073;-56
2023/08/25 01:13:18;;;;;;;3.88;2.08;;;;;;;-145.87;100.00;54973.53;2057297;28;20055;-56
2023/08/25 01:14:40;;;;;;;6.30;2.38;;;;;;;-145.87;100.00;54973.53;2038995;29;20055;-56
2023/08/25 01:15:41;;;;;;;4.10;2.03;;;;;;;-145.87;100.00;54973.53;2057327;28;20051;-56
2023/08/25 01:16:50;;;;;;;5.20;2.70;;;;;;;-145.87;100.00;54973.53;2050851;28;20054;-55
2023/08/25 01:17:56;;;;;;;5.75;2.25;;;;;;;-145.87;100.00;54973.53;2049728;28;20058;-56
2023/08/25 01:18:57;;;;;;;3.55;1.90;;;;;;;-145.87;100.00;54973.53;2034156;29;20063;-55
2023/08/25 01:20:06;;;;;;;6.85;2.30;;;;;;;-145.87;100.00;54973.53;2026007;29;20063;-56
2023/08/25 01:21:07;;;;;;;;;;;;;;;-145.87;100.00;54973.53;2051835;28;20047;-55
2023/08/25 01:22:13;;;;;;;6.32;2.92;;;;;;;-145.87;100.00;54973.53;2065436;28;19920;-55
2023/08/25 01:23:33;;;;;;;5.78;2.78;;;;;;;-145.87;100.00;54973.53;2057235;28;20065;-55
2023/08/25 01:24:34;;;;;;;5.13;2.53;;;;;;;-145.87;100.00;54973.53;2036148;29;20063;-56
2023/08/25 01:25:36;;;;;;;5.88;2.88;;;;;;;-145.87;100.00;54973.53;2034610;28;20059;-56
2023/08/25 01:26:37;;;;;;;7.25;2.63;;;;;;;-145.87;100.00;54973.53;2057343;28;20066;-56
2023/08/25 01:27:38;;;;;;;4.03;2.17;;;;;;;-145.87;100.00;54973.53;2064758;28;20479;-58
2023/08/25 01:28:41;;;;;;;8.07;3.05;;;;;;;-145.87;100.00;54973.53;2057172;28;20066;-58
2023/08/25 01:29:43;;;;;;;8.73;2.88;;;;;;;-145.87;100.00;54973.53;2049033;28;20539;-59
2023/08/25 01:30:44;;;;;;;5.68;2.60;;;;;;;-145.87;100.00;54973.53;2057205;28;20495;-58
2023/08/25 01:31:46;;;;;;;5.78;3.13;;;;;;;-145.87;100.00;54973.53;2056879;28;20051;-58
2023/08/25 01:32:47;;;;;;;6.95;2.88;;;;;;;-145.87;100.00;54973.53;2057287;28;20078;-58
2023/08/25 01:33:49;;;;;;;6.05;2.92;;;;;;;-145.87;100.00;54973.53;2065350;28;20061;-59
2023/08/25 01:34:50;;;;;;;5.28;2.13;;;;;;;-145.87;100.00;54973.53;2065095;28;20054;-58
2023/08/25 01:36:10;;;;;;;5.13;2.50;;;;;;;-145.87;100.00;54973.53;2065308;28;20523;-58
2023/08/25 01:37:23;;;;;;;5.68;2.65;;;;;;;-145.87;100.00;54973.53;2065348;28;20054;-58
2023/08/25 01:38:49;;;;;;;6.25;3.03;;;;;;;-145.87;100.00;54973.53;2049347;29;20071;-56
2023/08/25 01:39:52;;;;;;;7.97;3.28;;;;;;;-145.87;100.00;54973.53;2044817;29;20047;-56
2023/08/25 01:40:56;;;;;;;6.38;2.67;;;;;;;-145.87;100.00;54973.53;2048691;28;20055;-56
2023/08/25 01:41:59;;;;;;;7.45;2.75;;;;;;;-145.87;100.00;54973.53;2057374;28;20043;-56
2023/08/25 01:43:01;;;;;;;7.13;3.15;;;;;;;-145.87;100.00;54973.53;2057154;28;20050;-56
2023/08/25 01:44:03;;;;;;;6.78;2.60;;;;;;;-145.87;100.00;54973.53;2048925;29;20050;-56
2023/08/25 01:45:06;;;;;;;5.55;2.83;;;;;;;-145.87;100.00;54973.53;2040703;29;20062;-56
2023/08/25 01:46:08;;;;;;;8.23;2.90;;;;;;;-145.87;100.00;54973.53;2049586;28;20099;-55
2023/08/25 01:47:10;;;;;;;5.72;2.45;;;;;;;-145.87;100.00;54973.53;2049151;29;20047;-56
2023/08/25 01:48:11;;;;;;;5.75;2.40;;;;;;;-145.87;100.00;54973.53;2040968;29;20051;-56
2023/08/25 01:49:13;;;;;;;7.18;2.40;;;;;;;-145.87;100.00;54973.53;2033557;29;20055;-56
2023/08/25 01:50:14;;;;;;;6.22;2.70;;;;;;;-145.87;100.00;54973.53;2041565;28;20063;-55
2023/08/25 01:51:16;;;;;;;8.57;2.90;;;;;;;-145.87;100.00;54973.53;2040905;29;20055;-56
2023/08/25 01:52:17;;;;;;;4.97;3.22;;;;;;;-145.87;100.00;54973.53;2049216;28;20052;-56
2023/08/25 01:53:18;;;;;;;6.28;2.65;;;;;;;-145.87;100.00;54973.53;2049519;28;20047;-56
2023/08/25 01:54:19;;;;;;;5.07;2.72;;;;;;;-145.87;100.00;54973.53;2048906;28;20518;-55
2023/08/25 01:55:20;;;;;;;5.88;2.80;;;;;;;-145.87;100.00;54973.53;2057242;28;20055;-55
2023/08/25 01:56:21;;;;;;;6.20;2.70;;;;;;;-145.87;100.00;54973.53;2057540;28;20055;-55
2023/08/25 01:57:23;;;;;;;6.03;2.78;;;;;;;-145.87;100.00;54973.53;2056921;28;20082;-55
2023/08/25 01:58:24;;;;;;;8.88;2.92;;;;;;;-145.87;100.00;54973.53;2057067;28;20062;-55
2023/08/25 01:59:25;;;;;;;5.82;2.83;;;;;;;-145.87;100.00;54973.53;2057534;28;20067;-55
2023/08/25 02:00:26;;;;;;;6.18;2.85;;;;;;;-145.87;100.00;54973.53;2056663;28;20050;-55
2023/08/25 02:01:30;;;;;;;6.65;2.60;;;;;;;-145.87;100.00;54973.53;2056844;28;20486;-54
2023/08/25 02:02:31;;;;;;;3.70;2.35;;;;;;;-145.87;100.00;54973.53;2065817;28;20058;-55
2023/08/25 02:03:32;;;;;;;5.85;2.60;;;;;;;-145.87;100.00;54973.53;2065160;28;20050;-55
2023/08/25 02:04:33;;;;;;;4.47;2.22;;;;;;;-145.87;100.00;54973.53;2065800;28;20501;-56
2023/08/25 02:05:35;;;;;;;9.45;3.22;;;;;;;-145.87;100.00;54973.53;2057025;28;20482;-56
2023/08/25 02:06:36;;;;;;;5.65;2.17;;;;;;;-145.87;100.00;54973.53;2056818;28;20106;-56
2023/08/25 02:07:37;;;;;;;5.85;2.28;;;;;;;-145.87;100.00;54973.53;2056344;28;20051;-56
2023/08/25 02:08:38;;;;;;;5.22;2.60;;;;;;;-145.87;100.00;54973.53;2056635;28;20162;-56
2023/08/25 02:09:39;;;;;;;5.05;2.78;;;;;;;-145.87;100.00;54973.53;2048654;29;20055;-56
2023/08/25 02:10:40;;;;;;;6.70;2.53;;;;;;;-145.87;100.00;54973.53;2057137;28;20062;-56
2023/08/25 02:11:41;;;;;;;5.40;2.60;;;;;;;-145.87;100.00;54973.53;2056317;28;20062;-56
2023/08/25 02:12:52;;;;;;;4.22;2.58;;;;;;;-145.87;100.00;54973.53;2058128;28;20059;-57
2023/08/25 02:13:53;;;;;;;5.97;2.50;;;;;;;-145.87;100.00;54973.53;2056901;28;20058;-56
2023/08/25 02:14:54;;;;;;;4.95;2.53;;;;;;;-145.87;100.00;54973.53;2056774;28;20061;-56
2023/08/25 02:15:56;;;;;;;5.90;2.78;;;;;;;-145.87;100.00;54973.53;2065232;28;20062;-56
2023/08/25 02:16:59;;;;;;;4.18;2.40;;;;;;;-145.87;100.00;54973.53;2065580;28;20058;-55
2023/08/25 02:18:00;;;;;;;4.80;2.47;;;;;;;-145.87;100.00;54973.53;2057204;28;20051;-56
2023/08/25 02:19:01;;;;;;;7.32;2.92;;;;;;;-145.87;100.00;54973.53;2056972;28;20529;-56
2023/08/25 02:20:04;;;;;;;6.30;2.67;;;;;;;-145.87;100.00;54973.53;2057013;28;20050;-55
2023/08/25 02:21:05;;;;;;;6.63;2.60;;;;;;;-145.87;100.00;54973.53;2057271;28;20055;-55
2023/08/25 02:22:07;;;;;;;4.75;2.67;;;;;;;-145.87;100.00;54973.53;2065648;28;20049;-55
2023/08/25 02:23:08;;;;;;;6.35;2.70;;;;;;;-145.87;100.00;54973.53;2057195;28;20530;-55
2023/08/25 02:24:09;;;;;;;5.47;2.50;;;;;;;-145.87;100.00;54973.53;2056684;28;20123;-56
2023/08/25 02:25:10;;;;;;;6.68;2.92;;;;;;;-145.87;100.00;54973.53;2065333;28;20054;-56
2023/08/25 02:26:11;;;;;;;7.03;2.65;;;;;;;-145.87;100.00;54973.53;2065365;28;20046;-56
2023/08/25 02:27:12;;;;;;;4.03;2.40;;;;;;;-145.87;100.00;54973.53;2056688;28;20055;-56
2023/08/25 02:28:13;;;;;;;4.00;2.25;;;;;;;-145.87;100.00;54973.53;2056394;28;20057;-55
2023/08/25 02:29:15;;;;;;;5.85;2.50;;;;;;;-145.87;100.00;54973.53;2049113;28;20063;-56
2023/08/25 02:30:16;;;;;;;4.60;2.20;;;;;;;-145.87;100.00;54973.53;2048803;29;20416;-56
2023/08/25 02:31:17;;;;;;;3.78;2.13;;;;;;;-145.87;100.00;54973.53;2057093;28;20049;-55
2023/08/25 02:32:21;;;;;;;4.63;2.38;;;;;;;-145.87;100.00;54973.53;2056200;28;20475;-58
2023/08/25 02:33:23;;;;;;;5.72;2.67;;;;;;;-145.87;100.00;54973.53;2048648;28;20472;-58
2023/08/25 02:34:24;;;;;;;5.28;2.30;;;;;;;-145.87;100.00;54973.53;2056355;28;20054;-58
2023/08/25 02:35:25;;;;;;;4.10;2.00;;;;;;;-145.87;100.00;54973.53;2064622;28;20054;-58
2023/08/25 02:36:26;;;;;;;4.40;1.77;;;;;;;-145.87;100.00;54973.53;2055837;28;20061;-58
2023/08/25 02:37:28;;;;;;;6.50;2.47;;;;;;;-145.87;100.00;54973.53;2057131;28;20054;-57
2023/08/25 02:38:30;;;;;;;2.65;1.52;;;;;;;-145.87;100.00;54973.53;2056657;28;20066;-58
2023/08/25 02:39:31;;;;;;;4.10;1.95;;;;;;;-145.87;100.00;54973.53;2056719;28;20514;-58
2023/08/25 02:40:33;;;;;;;4.88;2.08;;;;;;;-145.87;100.00;54973.53;2065374;28;20582;-56
2023/08/25 02:41:34;;;;;;;4.70;2.13;;;;;;;-145.87;100.00;54973.53;2057700;28;20467;-56
2023/08/25 02:42:35;;;;;;;2.90;1.65;;;;;;;-145.87;100.00;54973.53;2058403;28;20065;-55
2023/08/25 02:43:36;;;;;;;4.82;1.85;;;;;;;-145.87;100.00;54973.53;2058445;28;20462;-56
2023/08/25 02:44:38;;;;;;;3.63;1.67;;;;;;;-145.87;100.00;54973.53;2057910;28;20063;-55
2023/08/25 02:45:41;;;;;;;6.82;2.40;;;;;;;-145.87;100.00;54973.53;2058019;28;20136;-56
2023/08/25 02:46:43;;;;;;;6.38;2.10;;;;;;;-145.87;100.00;54973.53;2066438;28;20053;-58
2023/08/25 02:47:44;;;;;;;5.65;2.10;;;;;;;-145.87;100.00;54973.53;2058356;28;20066;-57
2023/08/25 02:48:45;;;;;;;4.82;1.90;;;;;;;-145.87;100.00;54973.53;2058333;28;20069;-58
2023/08/25 02:49:46;;;;;;;5.93;2.08;;;;;;;-145.87;100.00;54973.53;2057911;28;20054;-57
2023/08/25 02:50:47;;;;;;;2.50;1.63;;;;;;;-145.87;100.00;54973.53;2058361;28;20050;-57
2023/08/25 02:51:48;;;;;;;4.45;2.05;;;;;;;-145.87;100.00;54973.53;2058217;28;20435;-58
2023/08/25 02:53:48;;;;;;;4.13;2.20;;;;;;;-145.87;100.00;54973.53;2058419;28;20062;-57
2023/08/25 02:54:49;;;;;;;5.40;2.03;;;;;;;-145.87;100.00;54973.53;2058520;28;20055;-58
2023/08/25 02:55:50;;;;;;;3.88;2.03;;;;;;;-145.87;100.00;54973.53;2057781;28;20066;-58
2023/08/25 02:56:51;;;;;;;5.45;2.03;;;;;;;-145.87;100.00;54973.53;2058501;28;20054;-58
2023/08/25 02:57:52;;;;;;;4.35;2.00;;;;;;;-145.87;100.00;54973.53;2058290;28;20518;-57
2023/08/25 02:58:53;;;;;;;5.50;2.10;;;;;;;-145.87;100.00;54973.53;2065898;28;20054;-58
2023/08/25 02:59:54;;;;;;;8.07;2.20;;;;;;;-145.87;100.00;54973.53;2058076;28;20058;-58
2023/08/25 03:00:55;;;;;;;4.90;1.90;;;;;;;-145.87;100.00;54973.53;2050406;28;20439;-58
2023/08/25 03:01:57;;;;;;;3.30;1.83;;;;;;;-145.87;100.00;54973.53;2058106;28;20051;-58
2023/08/25 03:02:58;;;;;;;2.45;1.50;;;;;;;-145.87;100.00;54973.53;2058202;28;20062;-58
2023/08/25 03:03:59;;;;;;;3.50;1.98;;;;;;;-145.87;100.00;54973.53;2066394;28;20050;-58
2023/08/25 03:05:00;;;;;;;3.00;2.13;;;;;;;-145.87;100.00;54973.53;2057821;28;20525;-57
2023/08/25 03:06:02;;;;;;;5.90;2.10;;;;;;;-145.87;100.00;54973.53;2058086;28;20051;-58
2023/08/25 03:07:03;;;;;;;4.30;1.80;;;;;;;-145.87;100.00;54973.53;2058358;28;20061;-58
2023/08/25 03:08:08;;;;;;;3.53;1.80;;;;;;;-145.87;100.00;54973.53;2058168;28;20553;-58
2023/08/25 03:09:11;;;;;;;5.85;1.95;;;;;;;-145.87;100.00;54973.53;2058661;28;20519;-58
2023/08/25 03:10:12;;;;;;;4.95;1.80;;;;;;;-145.87;100.00;54973.53;2058172;28;20059;-58
2023/08/25 03:11:13;;;;;;;6.63;1.95;;;;;;;-145.87;100.00;54973.53;2050026;28;20059;-57
2023/08/25 03:12:15;;;;;;;3.17;1.92;;;;;;;-145.87;100.00;54973.53;2050053;29;20053;-56
2023/08/25 03:13:17;;;;;;;4.00;1.42;;;;;;;-145.87;100.00;54973.53;2058217;28;20050;-56
2023/08/25 03:14:18;;;;;;;2.90;2.10;;;;;;;-145.87;100.00;54973.53;2058155;28;20075;-56
2023/08/25 03:15:19;;;;;;;3.85;1.60;;;;;;;-145.87;100.00;54973.53;2058108;28;20065;-56
2023/08/25 03:16:20;;;;;;;3.15;1.70;;;;;;;-145.87;100.00;54973.53;2058098;28;20054;-56
2023/08/25 03:17:23;;;;;;;4.05;1.88;;;;;;;-145.87;100.00;54973.53;2065930;28;20066;-56
2023/08/25 03:18:25;;;;;;;4.95;1.98;;;;;;;-145.87;100.00;54973.53;2058049;28;20066;-56
2023/08/25 03:19:27;;;;;;;4.10;1.70;;;;;;;-145.87;100.00;54973.53;2058249;28;20066;-56
2023/08/25 03:20:28;;;;;;;5.18;1.63;;;;;;;-145.87;100.00;54973.53;2057994;28;20054;-56
2023/08/25 03:21:30;;;;;;;2.50;1.55;;;;;;;-145.87;100.00;54973.53;2050182;28;20047;-56
2023/08/25 03:22:31;;;;;;;4.18;2.38;;;;;;;-145.87;100.00;54973.53;2050106;29;20078;-56
2023/08/25 03:23:35;;;;;;;5.32;1.75;;;;;;;-145.87;100.00;54973.53;2057800;28;20050;-56
2023/08/25 03:24:36;;;;;;;3.90;1.80;;;;;;;-145.87;100.00;54973.53;2058011;28;20427;-56
2023/08/25 03:25:38;;;;;;;5.13;1.83;;;;;;;-145.87;100.00;54973.53;2058348;28;20055;-56
2023/08/25 03:26:39;;;;;;;3.85;1.92;;;;;;;-145.87;100.00;54973.53;2066286;28;20054;-55
2023/08/25 03:27:41;;;;;;;3.38;1.80;;;;;;;-145.87;100.00;54973.53;2057669;28;20538;-55
2023/08/25 03:28:42;;;;;;;5.30;1.98;;;;;;;-145.87;100.00;54973.53;2058029;28;20058;-55
2023/08/25 03:29:43;;;;;;;5.20;2.00;;;;;;;-145.87;100.00;54973.53;2057748;28;20058;-56
2023/08/25 03:30:44;;;;;;;2.90;1.70;;;;;;;-145.87;100.00;54973.53;2058042;28;20066;-57
2023/08/25 03:31:45;;;;;;;5.57;2.05;;;;;;;-145.87;100.00;54973.53;2066223;28;20589;-55
2023/08/25 03:32:46;;;;;;;3.85;1.90;;;;;;;-145.87;100.00;54973.53;2057900;28;20058;-56
2023/08/25 03:33:48;;;;;;;3.45;1.80;;;;;;;-145.87;100.00;54973.53;2057973;28;20057;-57
2023/08/25 03:34:49;;;;;;;3.70;1.98;;;;;;;-145.87;100.00;54973.53;2057606;28;20062;-58
2023/08/25 03:35:50;;;;;;;2.95;1.52;;;;;;;-145.87;100.00;54973.53;2057904;28;20408;-58
2023/08/25 03:36:53;;;;;;;2.45;1.67;;;;;;;-145.87;100.00;54973.53;2057557;28;20050;-56
2023/08/25 03:37:54;;;;;;;4.13;1.88;;;;;;;-145.87;100.00;54973.53;2050072;29;20059;-57
2023/08/25 03:38:56;;;;;;;4.60;2.20;;;;;;;-145.87;100.00;54973.53;2057907;28;20065;-56
2023/08/25 03:39:57;;;;;;;4.63;2.20;;;;;;;-145.87;100.00;54973.53;2049809;29;20062;-56
2023/08/25 03:41:00;;;;;;;3.38;1.75;;;;;;;-145.87;100.00;54973.53;2050014;28;20055;-56
2023/08/25 03:42:02;;;;;;;5.30;1.92;;;;;;;-145.87;100.00;54973.53;2058085;28;20057;-56
2023/08/25 03:43:05;;;;;;;5.25;2.03;;;;;;;-145.87;100.00;54973.53;2057790;28;20411;-58
2023/08/25 03:44:06;;;;;;;4.68;1.90;;;;;;;-145.87;100.00;54973.53;2049724;29;20129;-59
2023/08/25 03:45:08;;;;;;;3.67;1.88;;;;;;;-145.87;100.00;54973.53;2057698;28;20059;-59
2023/08/25 03:46:09;;;;;;;2.90;1.70;;;;;;;-145.87;100.00;54973.53;2058117;28;20550;-58
2023/08/25 03:47:10;;;;;;;5.18;1.63;;;;;;;-145.87;100.00;54973.53;2050101;29;20182;-58
2023/08/25 03:48:11;;;;;;;3.38;1.88;;;;;;;-145.87;100.00;54973.53;2057879;28;20073;-58
2023/08/25 03:49:13;;;;;;;6.05;2.00;;;;;;;-145.87;100.00;54973.53;2057586;28;20046;-58
2023/08/25 03:50:14;;;;;;;4.65;1.77;;;;;;;-145.87;100.00;54973.53;2050089;29;20098;-58
2023/08/25 03:51:15;;;;;;;4.38;2.00;;;;;;;-145.87;100.00;54973.53;2057938;28;20050;-58
2023/08/25 03:52:16;;;;;;;3.75;1.80;;;;;;;-145.87;100.00;54973.53;2065931;28;20054;-58
2023/08/25 03:53:17;;;;;;;4.50;1.77;;;;;;;-145.87;100.00;54973.53;2057646;28;20557;-57
2023/08/25 03:54:18;;;;;;;3.42;2.05;;;;;;;-145.87;100.00;54973.53;2050161;28;20055;-58
2023/08/25 03:55:19;;;;;;;3.08;1.73;;;;;;;-145.87;100.00;54973.53;2057395;28;20058;-58
2023/08/25 03:56:21;;;;;;;6.95;1.83;;;;;;;-145.87;100.00;54973.53;2057513;28;20050;-58
2023/08/25 03:57:22;;;;;;;4.32;1.90;;;;;;;-145.87;100.00;54973.53;2057423;28;20144;-58
2023/08/25 03:58:23;;;;;;;4.15;1.98;;;;;;;-145.87;100.00;54973.53;2066209;28;20050;-58
2023/08/25 03:59:25;;;;;;;7.05;2.60;;;;;;;-145.87;100.00;54973.53;2066422;28;20057;-58
2023/08/25 04:00:26;;;;;;;7.32;1.92;;;;;;;-145.87;100.00;54973.53;2057923;28;20065;-58
2023/08/25 04:01:28;;;;;;;7.63;2.03;;;;;;;-145.87;100.00;54973.53;2049389;28;20055;-57
2023/08/25 04:02:30;;;;;;;5.82;2.40;;;;;;;-145.87;100.00;54973.53;2057761;28;20065;-57
2023/08/25 04:03:31;;;;;;;5.70;2.20;;;;;;;-145.87;100.00;54973.53;2066371;28;20072;-58
2023/08/25 04:04:32;;;;;;;4.13;2.00;;;;;;;-145.87;100.00;54973.53;2057146;28;20062;-58
2023/08/25 04:05:33;;;;;;;6.05;2.40;;;;;;;-145.87;100.00;54973.53;2057354;28;20050;-57
2023/08/25 04:06:34;;;;;;;3.38;2.30;;;;;;;-145.87;100.00;54973.53;2057718;28;20059;-57
2023/08/25 04:07:36;;;;;;;5.28;2.30;;;;;;;-145.87;100.00;54973.53;2057812;28;20431;-57
2023/08/25 04:08:37;;;;;;;5.70;2.30;;;;;;;-145.87;100.00;54973.53;2057940;28;20059;-57
2023/08/25 04:09:38;;;;;;;4.50;1.80;;;;;;;-145.87;100.00;54973.53;2057446;28;20054;-58
2023/08/25 04:10:41;;;;;;;4.38;1.80;;;;;;;-145.87;100.00;54973.53;2057130;28;20059;-58
2023/08/25 04:11:44;;;;;;;4.03;1.80;;;;;;;-145.87;100.00;54973.53;2049879;28;20435;-55
2023/08/25 04:12:45;;;;;;;4.80;2.60;;;;;;;-145.87;100.00;54973.53;2049653;29;20059;-58
2023/08/25 04:13:47;;;;;;;4.30;2.28;;;;;;;-145.87;100.00;54973.53;2057486;28;20051;-58
2023/08/25 04:14:48;;;;;;;6.55;1.83;;;;;;;-145.87;100.00;54973.53;2049499;28;20055;-57
2023/08/25 04:15:55;;;;;;;5.85;2.08;;;;;;;-145.87;100.00;54973.53;2049690;28;20523;-57
2023/08/25 04:16:58;;;;;;;3.97;1.80;;;;;;;-145.87;100.00;54973.53;2050254;28;20070;-57
2023/08/25 04:18:00;;;;;;;5.28;2.20;;;;;;;-145.87;100.00;54973.53;2057622;28;20442;-57
2023/08/25 04:19:01;;;;;;;6.75;1.95;;;;;;;-145.87;100.00;54973.53;2049212;29;20051;-57
2023/08/25 04:20:05;;;;;;;3.97;1.77;;;;;;;-145.87;100.00;54973.53;2050087;28;20500;-57
2023/08/25 04:21:07;;;;;;;3.22;1.70;;;;;;;-145.87;100.00;54973.53;2049484;28;20062;-55
2023/08/25 04:22:08;;;;;;;4.80;2.13;;;;;;;-145.87;100.00;54973.53;2049911;28;20059;-58
2023/08/25 04:23:09;;;;;;;3.88;1.70;;;;;;;-145.87;100.00;54973.53;2057555;28;20050;-58
2023/08/25 04:24:10;;;;;;;4.32;1.83;;;;;;;-145.87;100.00;54973.53;2057603;28;20047;-58
2023/08/25 04:25:12;;;;;;;4.18;2.10;;;;;;;-145.87;100.00;54973.53;2057657;28;20058;-57
2023/08/25 04:26:14;;;;;;;4.75;1.98;;;;;;;-145.87;100.00;54973.53;2065216;28;20046;-57
2023/08/25 04:27:15;;;;;;;5.30;1.88;;;;;;;-145.87;100.00;54973.53;2057677;28;20059;-58
2023/08/25 04:28:16;;;;;;;3.47;2.03;;;;;;;-145.87;100.00;54973.53;2049304;29;20058;-57
2023/08/25 04:29:18;;;;;;;4.35;2.15;;;;;;;-145.87;100.00;54973.53;2049751;29;20058;-59
2023/08/25 04:30:22;;;;;;;3.05;1.77;;;;;;;-145.87;100.00;54973.53;2056994;28;20055;-58
2023/08/25 04:31:24;;;;;;;4.18;2.08;;;;;;;-145.87;100.00;54973.53;2057366;28;20055;-57
2023/08/25 04:32:30;;;;;;;4.85;1.90;;;;;;;-145.87;100.00;54973.53;2050347;28;20058;-58
2023/08/25 04:33:31;;;;;;;5.60;2.10;;;;;;;-145.87;100.00;54973.53;2048981;29;20051;-57
2023/08/25 04:34:32;;;;;;;6.07;2.00;;;;;;;-145.87;100.00;54973.53;2049710;29;20059;-57
2023/08/25 04:35:36;;;;;;;5.72;2.35;;;;;;;-145.87;100.00;54973.53;2057360;28;20065;-58
2023/08/25 04:36:39;;;;;;;5.88;2.08;;;;;;;-145.87;100.00;54973.53;2057696;28;20055;-58
2023/08/25 04:37:43;;;;;;;5.65;2.15;;;;;;;-145.87;100.00;54973.53;2049744;28;20062;-58
2023/08/25 04:38:45;;;;;;;4.68;2.00;;;;;;;-145.87;100.00;54973.53;2049470;28;20066;-57
2023/08/25 04:39:46;;;;;;;4.30;1.80;;;;;;;-145.87;100.00;54973.53;2057117;28;20054;-58
2023/08/25 04:40:48;;;;;;;3.55;1.90;;;;;;;-145.87;100.00;54973.53;2056891;28;20058;-58
2023/08/25 04:41:49;;;;;;;5.82;2.03;;;;;;;-145.87;100.00;54973.53;2056855;28;20067;-58
2023/08/25 04:42:50;;;;;;;6.55;1.98;;;;;;;-145.87;100.00;54973.53;2057747;28;20505;-56
2023/08/25 04:43:51;;;;;;;4.65;2.00;;;;;;;-145.87;100.00;54973.53;2057140;28;20051;-56